Flight Track Log - Related Links

Times and Time Zones

All times are in EDT time to prevent confusion due to time zone crossing. See the UAL4093 flight status page for this flight to view local times or setup timezone preferences in your user account.

Time Position Orientation Groundspeed Altitude Reporting Facility
EDT Latitude Longitude Course Direction KTS MPH feet Rate Location/Type
Sat 06:22:24 PM 29.9594 -95.3414 90° East 154 177 900  Level Houston Center
Sat 06:23:07 PM 29.9458 -95.3069 115° Southeast 189 217 2,000 1,579 Climbing Houston Center
Sat 06:24:18 PM 29.9458 -95.2331 90° East 234 269 3,900 1,231 Climbing Houston Center
Sat 06:25:00 PM 29.9834 -94.9093 90° East  Level FlightAware Approximate
Sat 06:25:04 PM 29.9489 -95.1594 87° East 247 284 4,400  Level Houston Center
Sat 06:25:20 PM 29.9522 -95.1369 80° East 246 283 5,100 2,361 Climbing Houston Center
Sat 06:26:00 PM 29.9834 -94.7680 90° East  Level FlightAware Approximate
Sat 06:26:05 PM 29.9542 -95.0792 88° East 258 297 6,800  Level Houston Center
Sat 06:26:21 PM 29.9564 -95.0525 84° East 256 295 7,500 2,459 Climbing Houston Center
Sat 06:27:00 PM 29.9833 -94.6266 90° East  Level FlightAware Approximate
Sat 06:27:06 PM 29.9614 -94.9794 85° East 291 335 9,300  Level Houston Center
Sat 06:27:23 PM 29.9628 -94.9583 86° East 281 323 9,900 1,231 Climbing Houston Center
Sat 06:28:24 PM 29.9697 -94.8522 86° East 318 366 10,900 1,512 Climbing Houston Center
Sat 06:29:26 PM 29.9769 -94.7333 86° East 360 414 13,000 1,951 Climbing Houston Center
Sat 06:30:27 PM 29.9842 -94.6147 86° East 368 423 14,900 1,610 Climbing Houston Center
Sat 06:31:29 PM 29.9906 -94.4928 87° East 376 433 16,300 1,415 Climbing Houston Center
Sat 06:32:30 PM 29.9964 -94.3447 87° East 394 453 17,800 1,512 Climbing Houston Center
Sat 06:33:32 PM 30.0083 -94.2131 84° East 408 470 19,400 1,415 Climbing Houston Center
Sat 06:34:33 PM 30.0253 -94.0781 82° East 422 486 20,700 1,220 Climbing Houston Center
Sat 06:35:35 PM 30.0419 -93.9414 82° East 429 494 21,900 1,220 Climbing Houston Center
Sat 06:36:36 PM 30.0592 -93.8006 82° East 441 507 23,200 1,610 Climbing Houston Center
Sat 06:37:38 PM 30.0753 -93.6597 82° East 447 514 25,200 1,839 Climbing Houston Center
Sat 06:38:40 PM 30.0908 -93.5253 82° East 431 496 27,000 1,463 Climbing Houston Center
Sat 06:39:41 PM 30.1103 -93.3622 82° East 435 501 28,200 1,082 Climbing Houston Center
Sat 06:40:42 PM 30.1272 -93.2217 82° East 444 511 29,200 976 Climbing Houston Center
Sat 06:41:44 PM 30.1456 -93.0783 82° East 453 521 30,200 976 Climbing Houston Center
Sat 06:42:45 PM 30.1753 -92.9339 77° East 461 531 31,200 976 Climbing Houston Center
Sat 06:43:47 PM 30.2036 -92.7892 77° East 464 534 32,200 976 Climbing Houston Center
Sat 06:44:48 PM 30.2322 -92.6406 77° East 471 542 33,200 1,024 Climbing Houston Center
Sat 06:45:50 PM 30.2675 -92.4625 77° East 475 547 34,300 878 Climbing Houston Center
Sat 06:46:51 PM 30.2953 -92.3136 78° East 474 545 35,000 341 Climbing Houston Center
Sat 06:47:53 PM 30.3231 -92.1622 78° East 481 554 35,000  Level Houston Center
Sat 06:48:54 PM 30.3528 -92.0033 78° East 502 578 35,000  Level Houston Center
Sat 06:49:56 PM 30.3839 -91.8419 77° East 513 590 35,000  Level Houston Center
Sat 06:50:57 PM 30.4147 -91.6836 77° East 514 592 35,000  Level Houston Center
Sat 06:51:59 PM 30.4439 -91.5219 78° East 514 592 35,000  Level Houston Center
Sat 06:53:00 PM 30.4822 -91.3294 77° East 512 589 35,000 -49 Level Houston Center
Sat 06:54:02 PM 30.5600 -91.2019 55° Northeast 499 574 34,900  Descending Houston Center
Sat 06:55:04 PM 30.6483 -91.0892 48° Northeast 481 554 35,000 49 Climbing Houston Center
Sat 06:56:05 PM 30.7397 -90.9769 47° Northeast 477 549 35,000  Level Houston Center
Sat 06:57:07 PM 30.8303 -90.8625 47° Northeast 478 550 35,000 439 Level Houston Center
Sat 06:58:08 PM 30.9161 -90.7472 49° Northeast 474 545 35,900 634 Climbing Houston Center
Sat 06:59:10 PM 31.0025 -90.6325 49° Northeast 469 540 36,300 532 Climbing Houston Center
Sat 07:00:12 PM 31.0878 -90.5186 49° Northeast 466 536 37,000 341 Climbing Houston Center
Sat 07:01:13 PM 31.1906 -90.3808 49° Northeast 467 537 37,000  Level Houston Center
Sat 07:02:15 PM 31.2786 -90.2619 49° Northeast 478 550 37,000  Level Houston Center
Sat 07:03:16 PM 31.3689 -90.1414 49° Northeast 489 563 37,000  Level Houston Center
Sat 07:04:18 PM 31.4586 -90.0197 49° Northeast 491 565 37,000  Level Houston Center
Sat 07:05:20 PM 31.5492 -89.8969 49° Northeast 496 571 37,000  Level Houston Center
Sat 07:06:21 PM 31.6392 -89.7753 49° Northeast 494 568 37,000  Level Houston Center
Sat 07:07:06 PM 31.7158 -89.6711 49° Northeast 495 570 37,000  Level Memphis Center
Sat 07:08:06 PM 31.8050 -89.5508 49° Northeast 490 564 37,000  Level Memphis Center
Sat 07:08:24 PM 31.8233 -89.5239 51° Northeast 500 575 37,000  Level Houston Center
Sat 07:09:06 PM 31.8958 -89.4228 50° Northeast 490 564 37,000  Level Memphis Center
Sat 07:10:06 PM 31.9847 -89.2994 50° Northeast 490 564 37,000  Level Memphis Center
Sat 07:11:06 PM 32.0775 -89.1756 49° Northeast 490 564 37,000  Level Memphis Center
Sat 07:12:06 PM 32.1661 -89.0492 50° Northeast 495 570 37,000  Level Memphis Center
Sat 07:13:06 PM 32.2503 -88.9350 49° Northeast 495 570 37,000  Level Memphis Center
Sat 07:14:06 PM 32.3428 -88.8058 50° Northeast 500 575 37,000  Level Memphis Center
Sat 07:15:06 PM 32.4308 -88.6811 50° Northeast 500 575 37,000  Level Memphis Center
Sat 07:16:06 PM 32.5231 -88.5539 49° Northeast 505 581 37,000  Level Memphis Center
Sat 07:17:06 PM 32.6131 -88.4261 50° Northeast 505 581 37,000  Level Memphis Center
Sat 07:18:06 PM 32.7050 -88.2983 49° Northeast 505 581 37,000  Level Memphis Center
Sat 07:20:17 PM 32.9081 -88.0025 51° Northeast 509 586 37,000  Level Atlanta Center
Sat 07:21:17 PM 32.9844 -87.8994 49° Northeast 504 580 37,000  Level Atlanta Center
Sat 07:22:17 PM 33.0894 -87.7431 51° Northeast 509 586 37,000  Level Atlanta Center
Sat 07:23:17 PM 33.1789 -87.6153 50° Northeast 509 586 37,000  Level Atlanta Center
Sat 07:24:17 PM 33.2681 -87.4822 51° Northeast 509 586 37,000  Level Atlanta Center
Sat 07:25:17 PM 33.3572 -87.3539 50° Northeast 509 586 37,000  Level Atlanta Center
Sat 07:26:17 PM 33.4506 -87.2206 50° Northeast 509 586 37,000  Level Atlanta Center
Sat 07:27:17 PM 33.5417 -87.0869 51° Northeast 509 586 37,000  Level Atlanta Center
Sat 07:28:17 PM 33.6283 -86.9553 52° Northeast 509 586 37,000  Level Atlanta Center
Sat 07:29:17 PM 33.7144 -86.8408 48° Northeast 509 586 37,000  Level Atlanta Center
Sat 07:30:17 PM 33.8111 -86.7139 47° Northeast 514 592 37,000  Level Atlanta Center
Sat 07:31:17 PM 33.9033 -86.5942 47° Northeast 503 579 37,000  Level Atlanta Center
Sat 07:32:17 PM 33.9978 -86.4717 47° Northeast 498 573 37,000  Level Atlanta Center
Sat 07:33:17 PM 34.0939 -86.3492 47° Northeast 492 566 37,000  Level Atlanta Center
Sat 07:34:17 PM 34.1861 -86.2261 48° Northeast 492 566 37,000  Level Atlanta Center
Sat 07:35:17 PM 34.2800 -86.1053 47° Northeast 492 566 37,000  Level Atlanta Center
Sat 07:36:17 PM 34.3739 -85.9817 47° Northeast 492 566 37,000  Level Atlanta Center
Sat 07:37:17 PM 34.4653 -85.8603 48° Northeast 487 560 37,000  Level Atlanta Center
Sat 07:38:17 PM 34.5675 -85.7289 47° Northeast 487 560 37,000  Level Atlanta Center
Sat 07:39:17 PM 34.6567 -85.6044 49° Northeast 487 560 37,000  Level Atlanta Center
Sat 07:40:17 PM 34.7500 -85.4797 48° Northeast 492 566 37,000  Level Atlanta Center
Sat 07:41:17 PM 34.8453 -85.3547 47° Northeast 492 566 37,000  Level Atlanta Center
Sat 07:42:17 PM 34.9406 -85.2272 48° Northeast 492 566 37,000  Level Atlanta Center
Sat 07:43:17 PM 35.0314 -85.1017 49° Northeast 492 566 37,000  Level Atlanta Center
Sat 07:44:17 PM 35.1264 -84.9783 47° Northeast 492 566 37,000  Level Atlanta Center
Sat 07:46:17 PM 35.3406 -84.7592 40° Northeast 497 572 37,000  Level Atlanta Center
Sat 07:47:17 PM 35.4475 -84.6506 40° Northeast 497 572 37,000  Level Atlanta Center
Sat 07:48:17 PM 35.5567 -84.5417 39° Northeast 497 572 37,000  Level Atlanta Center
Sat 07:49:17 PM 35.6633 -84.4350 39° Northeast 497 572 37,000  Level Atlanta Center
Sat 07:50:17 PM 35.7722 -84.3228 40° Northeast 497 572 37,000  Level Atlanta Center
Sat 07:51:17 PM 35.8808 -84.2131 39° Northeast 497 572 37,000  Level Atlanta Center
Sat 07:52:17 PM 35.9894 -84.1028 39° Northeast 497 572 37,000  Level Atlanta Center
Sat 07:53:17 PM 36.0978 -83.9900 40° Northeast 497 572 37,000  Level Atlanta Center
Sat 07:55:12 PM 36.3100 -83.7681 40° Northeast 511 588 37,000  Level Indianapolis Center
Sat 07:56:13 PM 36.4183 -83.6547 40° Northeast 511 588 37,000  Level Indianapolis Center
Sat 07:57:14 PM 36.5172 -83.5525 40° Northeast 514 592 37,000  Level Indianapolis Center
Sat 07:58:15 PM 36.6292 -83.4411 39° Northeast 514 592 37,000  Level Indianapolis Center
Sat 07:59:15 PM 36.7514 -83.3564 29° Northeast 502 578 37,000  Level Indianapolis Center
Sat 08:00:16 PM 36.8767 -83.2756 27° Northeast 504 580 37,000  Level Indianapolis Center
Sat 08:01:17 PM 37.0017 -83.1958 27° Northeast 502 578 37,000  Level Indianapolis Center
Sat 08:02:18 PM 37.1253 -83.1147 28° Northeast 499 574 37,000  Level Indianapolis Center
Sat 08:03:19 PM 37.2489 -83.0328 28° Northeast 499 574 37,000  Level Indianapolis Center
Sat 08:04:20 PM 37.3714 -82.9528 27° Northeast 494 568 37,000  Level Indianapolis Center
Sat 08:05:21 PM 37.4925 -82.8742 27° Northeast 491 565 37,000  Level Indianapolis Center
Sat 08:06:22 PM 37.6350 -82.7781 28° Northeast 496 571 37,000  Level Indianapolis Center
Sat 08:07:23 PM 37.7564 -82.6969 28° Northeast 494 568 37,000  Level Indianapolis Center
Sat 08:08:24 PM 37.8775 -82.6189 27° Northeast 490 564 37,000  Level Indianapolis Center
Sat 08:09:25 PM 38.0064 -82.5819 13° North 483 556 37,000  Level Indianapolis Center
Sat 08:10:25 PM 38.1356 -82.5467 12° North 474 545 37,000  Level Indianapolis Center
Sat 08:11:26 PM 38.2636 -82.5125 12° North 469 540 37,000 -541 Level Indianapolis Center
Sat 08:12:27 PM 38.3875 -82.4811 11° North 464 534 35,900 -1,918 Descending Indianapolis Center
Sat 08:13:28 PM 38.5147 -82.4492 11° North 464 534 33,100 -1,574 Descending Indianapolis Center
Sat 08:14:29 PM 38.6400 -82.4086 14° North 463 533 32,700 -885 Descending Indianapolis Center
Sat 08:15:30 PM 38.7428 -82.2964 40° Northeast 488 562 31,300 -1,426 Descending Indianapolis Center
Sat 08:16:31 PM 38.8406 -82.1742 44° Northeast 489 563 29,800 -1,475 Descending Indianapolis Center
Sat 08:17:32 PM 38.9358 -82.0544 44° Northeast 479 551 28,300 -1,475 Descending Indianapolis Center
Sat 08:18:33 PM 39.0311 -81.9331 45° Northeast 477 549 26,800 -1,475 Descending Indianapolis Center
Sat 08:19:34 PM 39.1253 -81.8142 44° Northeast 473 544 25,300 -1,488 Descending Indianapolis Center
Sat 08:20:34 PM 39.2186 -81.6936 45° Northeast 472 543 23,800 -1,488 Descending Indianapolis Center
Sat 08:21:35 PM 39.3089 -81.5783 45° Northeast 461 531 22,300 -1,377 Descending Indianapolis Center
Sat 08:22:36 PM 39.3953 -81.4669 45° Northeast 445 512 21,000 -639 Descending Indianapolis Center
Sat 08:23:37 PM 39.4778 -81.3600 45° Northeast 428 493 21,000  Level Indianapolis Center
Sat 08:24:21 PM 39.5417 -81.2828 43° Northeast 424 488 21,000 -231 Level Cleveland Center
Sat 08:25:21 PM 39.6342 -81.1894 38° Northeast 419 482 20,600 -1,150 Descending Cleveland Center
Sat 08:26:21 PM 39.7261 -81.1014 36° Northeast 414 476 18,700 -1,750 Descending Cleveland Center
Sat 08:27:21 PM 39.8142 -81.0156 37° Northeast 409 471 17,100 -1,800 Descending Cleveland Center
Sat 08:28:21 PM 39.9019 -80.9294 37° Northeast 402 463 15,100 -2,000 Descending Cleveland Center
Sat 08:29:21 PM 39.9833 -80.8486 37° Northeast 382 440 13,100 -1,950 Descending Cleveland Center
Sat 08:30:21 PM 40.0608 -80.7622 40° Northeast 371 427 11,200 -1,550 Descending Cleveland Center
Sat 08:31:21 PM 40.1297 -80.6781 43° Northeast 355 409 10,000 -600 Descending Cleveland Center
Sat 08:32:21 PM 40.1964 -80.5886 46° Northeast 336 387 10,000 -150 Level Cleveland Center
Sat 08:33:21 PM 40.2589 -80.5014 47° Northeast 329 379 9,700 -1,000 Descending Cleveland Center
Sat 08:34:21 PM 40.3131 -80.4225 48° Northeast 307 353 8,000 -1,800 Descending Cleveland Center
Sat 08:35:21 PM 40.3358 -80.3133 75° East 280 322 6,100 -1,000 Descending Cleveland Center
Sat 08:36:21 PM 40.3564 -80.2181 74° East 274 315 6,000 -500 Descending Cleveland Center
Sat 08:37:21 PM 40.3769 -80.1253 74° East 274 315 5,100 -1,250 Descending Cleveland Center
Sat 08:38:21 PM 40.4161 -80.0594 52° Northeast 257 296 3,500 -1,600 Descending Cleveland Center

Login

Don't have an account? Register now (free) for customized features, flight alerts, and more!